Terminal Aerodrome Forecast
Issued by NWS San Angelo, TX

Home | Current Version | Previous Version | Text Only | Print | Product List | Glossary On
Versions: 1 2 3 4 5 6 7 8 9 10 11 12 13 14 15 16 17 18 19 20 21
000
FTUS44 KSJT 290558
TAFSJT
TAF
KSJT 290558Z 2906/3006 25007KT P6SM -SHRA BKN070
     FM290700 20011KT P6SM SCT035 BKN250
     FM291300 25018G25KT P6SM SKC=

USA.gov is the U.S. government's official web portal to all federal, state and local government web resources and services.